Terminal Aerodrome Forecast
Issued by NWS

Home | Current Version | Previous Version | Graphics & Text | Print | Product List | Glossary On
Versions: 1 2 3 4 5 6 7 8 9 10 11 12 13 14 15 16
000
FTUS43 KOAX 152332
TAFCDR
TAF
KCDR 152332Z 1600/1624 34007KT P6SM VCTS SCT050CB BKN070
      TEMPO 1600/1603 VRB25G35KT 1SM TSRA OVC020CB
     FM160400 VRB05KT P6SM SCT100=

USA.gov is the U.S. government's official web portal to all federal, state and local government web resources and services.